createdAt,value
2022-08-02T00:00:08.653Z,24.57
2022-08-02T00:02:35.015Z,24.55
2022-08-02T00:05:01.374Z,24.55
2022-08-02T00:07:27.725Z,24.55
2022-08-02T00:09:54.079Z,24.54
2022-08-02T00:12:20.434Z,24.55
2022-08-02T00:14:46.785Z,24.54
2022-08-02T00:17:13.137Z,24.51
2022-08-02T00:19:39.495Z,24.52
2022-08-02T00:22:05.865Z,24.51
2022-08-02T00:24:32.233Z,24.48
2022-08-02T00:26:58.682Z,24.48
2022-08-02T00:29:25.030Z,24.48
2022-08-02T00:31:51.406Z,24.46
2022-08-02T00:34:28.406Z,24.46
2022-08-02T00:36:57.437Z,24.46
2022-08-02T00:39:34.627Z,24.45
2022-08-02T00:42:01.844Z,24.45
2022-08-02T00:44:28.196Z,24.45
2022-08-02T00:46:54.567Z,24.45
2022-08-02T00:49:21.346Z,24.42
2022-08-02T00:51:47.908Z,24.43
2022-08-02T00:54:14.791Z,24.42
2022-08-02T00:56:41.184Z,24.40
2022-08-02T00:59:17.467Z,24.39
2022-08-02T01:01:57.629Z,24.40
2022-08-02T01:04:26.835Z,24.39
2022-08-02T01:06:58.077Z,24.37
2022-08-02T01:09:24.455Z,24.36
2022-08-02T01:11:50.829Z,24.38
2022-08-02T01:14:17.189Z,24.37
2022-08-02T01:16:46.247Z,24.38
2022-08-02T01:19:33.533Z,24.40
2022-08-02T01:22:05.472Z,24.42
2022-08-02T01:24:44.137Z,24.43
2022-08-02T01:27:21.333Z,24.42
2022-08-02T01:29:49.319Z,24.38
2022-08-02T01:32:16.653Z,24.37
2022-08-02T01:34:47.338Z,24.40
2022-08-02T01:37:16.076Z,24.39
2022-08-02T01:39:42.705Z,24.37
2022-08-02T01:42:09.390Z,24.37
2022-08-02T01:44:36.169Z,24.35
2022-08-02T01:47:03.927Z,24.35
2022-08-02T01:49:30.793Z,24.34
2022-08-02T01:52:15.918Z,24.32
2022-08-02T01:54:42.275Z,24.33
2022-08-02T01:57:09.039Z,24.32
2022-08-02T01:59:35.390Z,24.33
2022-08-02T02:02:01.949Z,24.32
2022-08-02T02:04:29.135Z,24.32
2022-08-02T02:06:56.056Z,24.31
2022-08-02T02:09:22.406Z,24.31
2022-08-02T02:12:06.174Z,24.31
2022-08-02T02:14:35.172Z,24.31
2022-08-02T02:17:01.549Z,24.31
2022-08-02T02:19:27.948Z,24.31
2022-08-02T02:21:54.306Z,24.29
2022-08-02T02:24:20.826Z,24.29
2022-08-02T02:26:52.052Z,24.28
2022-08-02T02:29:19.291Z,24.27
2022-08-02T02:31:45.875Z,24.28
2022-08-02T02:34:14.207Z,24.28
2022-08-02T02:36:41.353Z,24.28
2022-08-02T02:39:13.094Z,24.27
2022-08-02T02:41:40.046Z,24.27
2022-08-02T02:44:06.658Z,24.26
2022-08-02T02:46:33.040Z,24.27
2022-08-02T02:48:59.466Z,24.27
2022-08-02T02:51:25.881Z,24.24
2022-08-02T02:54:30.060Z,24.24
2022-08-02T02:56:38.593Z,24.22
2022-08-02T02:59:05.006Z,24.22
2022-08-02T03:01:56.055Z,24.21
2022-08-02T03:04:17.732Z,24.20
2022-08-02T03:06:44.104Z,24.20
2022-08-02T03:09:10.461Z,24.19
2022-08-02T03:11:38.019Z,24.18
2022-08-02T03:14:04.659Z,24.18
2022-08-02T03:16:31.157Z,24.18
2022-08-02T03:18:57.725Z,24.16
2022-08-02T03:21:24.097Z,24.17
2022-08-02T03:23:50.595Z,24.16
2022-08-02T03:26:17.021Z,24.15
2022-08-02T03:28:44.345Z,24.16
2022-08-02T03:31:10.896Z,24.14
2022-08-02T03:33:37.259Z,24.13
2022-08-02T03:36:08.511Z,24.14
2022-08-02T03:38:34.879Z,24.13
2022-08-02T03:41:01.540Z,24.11
2022-08-02T03:43:28.792Z,24.11
2022-08-02T03:45:55.350Z,24.10
2022-08-02T03:48:30.585Z,24.09
2022-08-02T03:51:00.897Z,24.08
2022-08-02T03:53:27.322Z,24.09
2022-08-02T03:55:55.833Z,24.08
2022-08-02T03:58:22.553Z,24.09
2022-08-02T04:00:48.938Z,24.08
2022-08-02T04:03:20.083Z,24.08
2022-08-02T04:06:00.926Z,24.08
2022-08-02T04:08:35.059Z,24.07
2022-08-02T04:11:22.725Z,24.06
2022-08-02T04:13:49.108Z,24.08
2022-08-02T04:16:18.693Z,24.07
2022-08-02T04:18:46.275Z,24.06
2022-08-02T04:21:13.644Z,24.03
2022-08-02T04:23:40.004Z,24.03
2022-08-02T04:26:07.961Z,24.03
2022-08-02T04:28:37.195Z,24.03
2022-08-02T04:31:03.584Z,24.01
2022-08-02T04:33:29.993Z,24.02
2022-08-02T04:35:59.843Z,24.01
2022-08-02T04:38:26.599Z,23.99
2022-08-02T04:40:53.951Z,24.00
2022-08-02T04:43:20.315Z,23.99
2022-08-02T04:45:47.151Z,23.97
2022-08-02T04:48:13.517Z,23.97
2022-08-02T04:50:39.875Z,23.96
2022-08-02T04:53:06.290Z,23.97
2022-08-02T04:55:32.657Z,23.97
2022-08-02T04:57:59.196Z,23.97
2022-08-02T05:00:25.882Z,23.95
2022-08-02T05:02:52.636Z,23.95
2022-08-02T05:05:19.006Z,23.95
2022-08-02T05:07:45.365Z,23.95
2022-08-02T05:10:11.735Z,23.94
2022-08-02T05:12:38.738Z,23.13
2022-08-02T05:15:05.284Z,22.71
2022-08-02T05:17:31.650Z,22.66
2022-08-02T05:19:58.029Z,22.46
2022-08-02T05:22:24.463Z,22.62
2022-08-02T05:24:50.880Z,22.52
2022-08-02T05:27:21.459Z,22.31
2022-08-02T05:29:53.531Z,22.58
2022-08-02T05:32:20.554Z,22.55
2022-08-02T05:34:50.077Z,22.70
2022-08-02T05:37:16.867Z,22.69
2022-08-02T05:39:55.019Z,22.54
2022-08-02T05:42:22.705Z,21.89
2022-08-02T05:44:49.081Z,21.88
2022-08-02T05:47:15.506Z,21.92
2022-08-02T05:49:41.986Z,22.01
2022-08-02T05:52:08.592Z,21.71
2022-08-02T05:54:39.419Z,22.22
2022-08-02T05:57:07.147Z,22.30
2022-08-02T05:59:53.702Z,22.30
2022-08-02T06:02:30.656Z,22.30
2022-08-02T06:05:04.471Z,22.10
2022-08-02T06:07:31.079Z,22.29
2022-08-02T06:09:59.647Z,22.51
2022-08-02T06:12:26.315Z,22.51
2022-08-02T06:14:54.550Z,22.37
2022-08-02T06:17:21.006Z,22.39
2022-08-02T06:19:52.019Z,22.44
2022-08-02T06:22:37.545Z,22.78
2022-08-02T06:25:04.877Z,22.82
2022-08-02T06:27:31.335Z,23.00
2022-08-02T06:29:57.751Z,23.12
2022-08-02T06:32:24.103Z,23.10
2022-08-02T06:34:50.530Z,23.20
2022-08-02T06:37:42.992Z,23.24
2022-08-02T06:40:14.567Z,23.29
2022-08-02T06:42:59.616Z,23.35
2022-08-02T06:45:25.995Z,23.36
2022-08-02T06:47:52.383Z,23.33
2022-08-02T06:50:18.818Z,23.30
2022-08-02T06:52:45.190Z,23.51
2022-08-02T06:55:11.552Z,23.49
2022-08-02T06:57:37.931Z,23.53
2022-08-02T07:00:08.529Z,23.36
2022-08-02T07:02:37.831Z,23.56
2022-08-02T07:05:04.290Z,23.68
2022-08-02T07:07:30.655Z,23.53
2022-08-02T07:10:01.386Z,23.60
2022-08-02T07:12:28.631Z,23.39
2022-08-02T07:14:55.014Z,23.61
2022-08-02T07:17:21.410Z,23.76
2022-08-02T07:19:47.813Z,23.68
2022-08-02T07:22:14.295Z,23.79
2022-08-02T07:24:40.814Z,23.79
2022-08-02T07:27:12.018Z,23.91
2022-08-02T07:29:46.899Z,23.68
2022-08-02T07:32:20.146Z,23.74
2022-08-02T07:34:53.010Z,23.80
2022-08-02T07:37:53.195Z,24.01
2022-08-02T07:40:13.784Z,23.78
2022-08-02T07:42:42.279Z,23.97
2022-08-02T07:45:08.734Z,23.83
2022-08-02T07:47:38.767Z,23.88
2022-08-02T07:50:05.226Z,23.98
2022-08-02T07:52:31.572Z,24.06
2022-08-02T07:54:57.943Z,24.07
2022-08-02T07:57:25.235Z,24.11
2022-08-02T07:59:51.708Z,24.10
2022-08-02T08:02:18.059Z,24.07
2022-08-02T08:04:44.431Z,23.68
2022-08-02T08:07:11.813Z,23.83
2022-08-02T08:09:42.084Z,23.95
2022-08-02T08:12:09.313Z,23.86
2022-08-02T08:14:36.109Z,24.09
2022-08-02T08:17:02.495Z,24.10
2022-08-02T08:19:50.303Z,24.11
2022-08-02T08:22:15.384Z,23.89
2022-08-02T08:24:41.740Z,24.06
2022-08-02T08:27:14.338Z,24.12
2022-08-02T08:29:41.849Z,24.18
2022-08-02T08:32:09.387Z,24.17
2022-08-02T08:34:40.755Z,23.70
2022-08-02T08:37:07.105Z,23.79
2022-08-02T08:39:33.467Z,24.06
2022-08-02T08:41:59.823Z,24.16
2022-08-02T08:44:27.259Z,24.10
2022-08-02T08:46:53.623Z,24.23
2022-08-02T08:49:26.618Z,24.22
2022-08-02T08:51:54.609Z,24.16
2022-08-02T08:54:20.972Z,23.94
2022-08-02T08:56:47.317Z,23.97
2022-08-02T08:59:13.703Z,23.99
2022-08-02T09:01:50.695Z,24.11
2022-08-02T09:04:18.103Z,24.03
2022-08-02T09:06:44.455Z,23.97
2022-08-02T09:09:10.818Z,23.98
2022-08-02T09:11:37.196Z,24.06
2022-08-02T09:14:03.555Z,24.19
2022-08-02T09:16:36.449Z,24.08
2022-08-02T09:19:17.550Z,24.04
2022-08-02T09:21:43.903Z,23.96
2022-08-02T09:24:17.604Z,23.97
2022-08-02T09:26:44.091Z,23.99
2022-08-02T09:29:11.087Z,24.00
2022-08-02T09:31:37.437Z,23.94
2022-08-02T09:34:04.579Z,24.00
2022-08-02T09:36:40.505Z,23.99
2022-08-02T09:39:07.525Z,24.00
2022-08-02T09:41:34.541Z,24.02
2022-08-02T09:44:04.380Z,24.01
2022-08-02T09:46:33.446Z,23.99
2022-08-02T09:49:00.538Z,23.99
2022-08-02T09:51:27.935Z,24.01
2022-08-02T09:54:08.014Z,24.01
2022-08-02T09:56:44.319Z,24.02
2022-08-02T09:59:10.793Z,24.01
2022-08-02T10:01:39.014Z,24.01
2022-08-02T10:04:14.528Z,24.01
2022-08-02T10:06:47.611Z,24.03
2022-08-02T10:09:13.983Z,24.21
2022-08-02T10:11:40.939Z,24.40
2022-08-02T10:14:07.653Z,24.46
2022-08-02T10:16:34.543Z,24.52
2022-08-02T10:19:02.297Z,24.69
2022-08-02T10:21:46.777Z,24.74
2022-08-02T10:24:14.418Z,25.05
2022-08-02T10:26:41.992Z,25.17
2022-08-02T10:29:09.364Z,25.65
2022-08-02T10:31:38.916Z,25.89
2022-08-02T10:34:07.135Z,26.05
2022-08-02T10:36:33.784Z,25.86
2022-08-02T10:39:01.117Z,25.07
2022-08-02T10:41:43.081Z,24.90
2022-08-02T10:44:24.380Z,24.86
2022-08-02T10:46:51.637Z,24.86
2022-08-02T10:49:39.290Z,24.91
2022-08-02T10:52:06.558Z,24.88
2022-08-02T10:54:34.076Z,24.76
2022-08-02T10:57:01.315Z,24.84
2022-08-02T10:59:28.904Z,24.84
2022-08-02T11:02:01.216Z,24.85
2022-08-02T11:04:28.651Z,24.99
2022-08-02T11:07:07.997Z,24.91
2022-08-02T11:09:34.361Z,24.83
2022-08-02T11:12:01.407Z,24.79
2022-08-02T11:14:27.767Z,24.75
2022-08-02T11:16:57.114Z,24.79
2022-08-02T11:19:26.630Z,24.77
2022-08-02T11:22:02.366Z,24.81
2022-08-02T11:24:32.350Z,24.83
2022-08-02T11:26:59.458Z,24.96
2022-08-02T11:29:32.712Z,24.93
2022-08-02T11:32:05.169Z,24.90
2022-08-02T11:34:37.614Z,24.94
2022-08-02T11:37:04.667Z,24.95
2022-08-02T11:39:31.083Z,25.00
2022-08-02T11:41:58.845Z,24.90
2022-08-02T11:44:28.827Z,25.04
2022-08-02T11:46:55.852Z,24.91
2022-08-02T11:49:22.309Z,24.93
2022-08-02T11:52:00.428Z,24.93
2022-08-02T11:54:27.827Z,24.92
2022-08-02T11:56:54.195Z,24.98
2022-08-02T11:59:20.582Z,24.94
2022-08-02T12:01:46.994Z,24.90
2022-08-02T12:04:16.126Z,24.90
2022-08-02T12:06:42.505Z,24.94
2022-08-02T12:09:17.975Z,24.87
2022-08-02T12:11:45.057Z,24.90
2022-08-02T12:14:11.432Z,24.88
2022-08-02T12:16:58.245Z,24.97
2022-08-02T12:19:26.695Z,24.93
2022-08-02T12:22:09.471Z,24.94
2022-08-02T12:24:36.322Z,25.09
2022-08-02T12:27:02.721Z,25.11
2022-08-02T12:29:57.943Z,24.98
2022-08-02T12:32:23.354Z,24.85
2022-08-02T12:35:00.159Z,24.91
2022-08-02T12:37:26.546Z,24.85
2022-08-02T12:39:53.937Z,24.81
2022-08-02T12:42:20.289Z,25.05
2022-08-02T12:44:53.348Z,25.11
2022-08-02T12:47:21.452Z,25.23
2022-08-02T12:50:08.043Z,25.26
2022-08-02T12:52:34.437Z,25.33
2022-08-02T12:55:00.803Z,25.59
2022-08-02T12:57:27.163Z,25.47
2022-08-02T12:59:53.621Z,25.44
2022-08-02T13:02:21.048Z,25.45
2022-08-02T13:04:49.700Z,25.47
2022-08-02T13:07:17.134Z,25.60
2022-08-02T13:09:48.119Z,25.57
2022-08-02T13:12:14.923Z,25.58
2022-08-02T13:14:42.592Z,25.61
2022-08-02T13:17:09.786Z,25.65
2022-08-02T13:19:36.807Z,25.55
2022-08-02T13:22:03.975Z,25.42
2022-08-02T13:24:41.230Z,25.47
2022-08-02T13:27:17.093Z,25.55
2022-08-02T13:29:43.463Z,25.59
2022-08-02T13:32:10.316Z,25.46
2022-08-02T13:34:36.896Z,25.52
2022-08-02T13:37:03.432Z,25.68
2022-08-02T13:39:29.786Z,25.48
2022-08-02T13:41:56.148Z,25.38
2022-08-02T13:44:22.532Z,25.37
2022-08-02T13:46:48.908Z,25.40
2022-08-02T13:49:19.517Z,25.46
2022-08-02T13:51:46.923Z,25.46
2022-08-02T13:54:13.544Z,25.46
2022-08-02T13:56:39.937Z,25.47
2022-08-02T13:59:55.828Z,25.40
2022-08-02T14:01:53.225Z,25.45
2022-08-02T14:04:19.647Z,25.46
2022-08-02T14:06:46.061Z,25.38
2022-08-02T14:09:15.768Z,25.35
2022-08-02T14:11:43.662Z,25.18
2022-08-02T14:14:16.287Z,25.08
2022-08-02T14:16:43.249Z,25.05
2022-08-02T14:19:10.830Z,25.22
2022-08-02T14:21:46.601Z,25.40
2022-08-02T14:24:17.359Z,25.52
2022-08-02T14:26:44.117Z,25.53
2022-08-02T14:29:12.117Z,25.57
2022-08-02T14:31:43.679Z,25.52
2022-08-02T14:34:10.950Z,25.64
2022-08-02T14:36:37.569Z,25.75
2022-08-02T14:39:03.968Z,25.55
2022-08-02T14:41:33.653Z,25.56
2022-08-02T14:44:05.995Z,25.57
2022-08-02T14:46:32.725Z,25.51
2022-08-02T14:49:02.156Z,25.53
2022-08-02T14:51:29.372Z,25.50
2022-08-02T14:54:02.812Z,25.47
2022-08-02T14:56:29.711Z,25.58
2022-08-02T14:58:56.064Z,25.59
2022-08-02T15:01:26.258Z,25.63
2022-08-02T15:03:52.802Z,25.61
2022-08-02T15:06:19.207Z,25.59
2022-08-02T15:08:45.575Z,25.69
2022-08-02T15:11:12.037Z,25.62
2022-08-02T15:13:41.120Z,25.60
2022-08-02T15:16:09.182Z,25.56
2022-08-02T15:18:35.544Z,25.65
2022-08-02T15:21:08.032Z,25.71
2022-08-02T15:23:48.304Z,25.72
2022-08-02T15:26:14.675Z,25.74
2022-08-02T15:28:41.025Z,25.72
2022-08-02T15:31:07.415Z,25.72
2022-08-02T15:33:33.830Z,25.69
2022-08-02T15:36:00.197Z,25.70
2022-08-02T15:38:26.567Z,25.73
2022-08-02T15:40:52.926Z,25.79
2022-08-02T15:43:19.339Z,25.76
2022-08-02T15:45:45.722Z,25.68
2022-08-02T15:48:12.123Z,25.67
2022-08-02T15:50:38.550Z,25.68
2022-08-02T15:53:04.913Z,25.68
2022-08-02T15:55:39.953Z,25.61
2022-08-02T15:58:17.978Z,25.69
2022-08-02T16:00:48.787Z,25.73
2022-08-02T16:03:15.171Z,25.70
2022-08-02T16:05:41.606Z,25.77
2022-08-02T16:08:08.251Z,25.80
2022-08-02T16:10:34.622Z,25.78
2022-08-02T16:13:52.606Z,25.84
2022-08-02T16:16:20.868Z,25.91
2022-08-02T16:18:47.361Z,25.92
2022-08-02T16:21:13.990Z,25.90
2022-08-02T16:24:01.891Z,25.91
2022-08-02T16:26:29.162Z,25.94
2022-08-02T16:28:55.845Z,25.96
2022-08-02T16:31:22.235Z,25.93
2022-08-02T16:33:48.614Z,25.99
2022-08-02T16:36:14.994Z,25.94
2022-08-02T16:38:46.048Z,25.94
2022-08-02T16:41:12.462Z,25.81
2022-08-02T16:43:42.757Z,25.62
2022-08-02T16:46:09.960Z,25.49
2022-08-02T16:48:36.555Z,25.49
2022-08-02T16:51:02.924Z,25.52
2022-08-02T16:53:36.669Z,25.49
2022-08-02T16:56:03.900Z,25.47
2022-08-02T16:58:30.251Z,25.43
2022-08-02T17:00:56.692Z,25.39
2022-08-02T17:03:24.187Z,25.43
2022-08-02T17:06:00.993Z,25.44
2022-08-02T17:08:31.685Z,25.41
2022-08-02T17:10:58.749Z,25.43
2022-08-02T17:13:30.211Z,25.41
2022-08-02T17:16:17.180Z,25.41
2022-08-02T17:18:43.197Z,25.38
2022-08-02T17:21:15.636Z,25.38
2022-08-02T17:24:05.234Z,25.38
2022-08-02T17:26:31.122Z,25.38
2022-08-02T17:29:15.404Z,25.40
2022-08-02T17:34:31.413Z,25.38
2022-08-02T17:36:57.864Z,25.34
2022-08-02T17:39:24.233Z,25.33
2022-08-02T17:42:00.498Z,25.30
2022-08-02T17:47:13.251Z,25.26
2022-08-02T17:49:43.916Z,25.25
2022-08-02T17:52:50.383Z,25.25
2022-08-02T17:55:03.378Z,25.23
2022-08-02T17:57:55.786Z,25.22
2022-08-02T18:00:16.685Z,25.21
2022-08-02T18:02:43.089Z,25.15
2022-08-02T18:05:19.047Z,25.15
2022-08-02T18:07:52.001Z,25.14
2022-08-02T18:10:21.800Z,25.13
2022-08-02T18:12:49.553Z,25.09
2022-08-02T18:15:15.906Z,25.17
2022-08-02T18:17:42.349Z,25.31
2022-08-02T18:20:11.027Z,25.39
2022-08-02T18:22:37.728Z,25.45
2022-08-02T18:25:09.348Z,25.49
2022-08-02T18:27:52.709Z,25.52
2022-08-02T18:30:27.964Z,25.50
2022-08-02T18:33:54.414Z,25.42
2022-08-02T18:35:42.371Z,25.45
2022-08-02T18:38:11.808Z,25.43
2022-08-02T18:40:38.334Z,25.36
2022-08-02T18:43:06.996Z,25.43
2022-08-02T18:46:01.577Z,25.47
2022-08-02T18:48:20.531Z,25.45
2022-08-02T18:50:48.236Z,25.45
2022-08-02T18:53:16.810Z,25.48
2022-08-02T18:56:04.233Z,25.41
2022-08-02T18:58:30.991Z,25.37
2022-08-02T19:00:57.447Z,25.37
2022-08-02T19:03:25.627Z,25.35
2022-08-02T19:05:54.027Z,25.40
2022-08-02T19:08:20.686Z,25.37
2022-08-02T19:10:53.019Z,25.35
2022-08-02T19:13:19.429Z,25.30
2022-08-02T19:15:46.560Z,25.29
2022-08-02T19:18:14.293Z,25.29
2022-08-02T19:20:40.649Z,25.14
2022-08-02T19:23:15.034Z,25.11
2022-08-02T19:25:45.235Z,25.11
2022-08-02T19:28:16.996Z,24.99
2022-08-02T19:30:52.801Z,25.15
2022-08-02T19:33:24.839Z,25.20
2022-08-02T19:36:06.498Z,25.20
2022-08-02T19:38:32.885Z,25.23
2022-08-02T19:40:59.551Z,25.24
2022-08-02T19:44:25.846Z,25.26
2022-08-02T19:46:15.903Z,25.26
2022-08-02T19:48:42.580Z,25.20
2022-08-02T19:51:10.504Z,25.28
2022-08-02T19:53:47.559Z,25.30
2022-08-02T19:56:20.951Z,25.31
2022-08-02T19:58:48.643Z,25.32
2022-08-02T20:01:17.317Z,25.32
2022-08-02T20:03:52.212Z,25.32
2022-08-02T20:06:19.371Z,25.17
2022-08-02T20:08:53.243Z,25.07
2022-08-02T20:11:36.217Z,25.14
2022-08-02T20:14:04.643Z,25.15
2022-08-02T20:16:32.837Z,25.08
2022-08-02T20:18:59.682Z,25.02
2022-08-02T20:21:36.448Z,25.01
2022-08-02T20:24:06.776Z,24.94
2022-08-02T20:26:33.294Z,24.90
2022-08-02T20:29:02.818Z,24.83
2022-08-02T20:31:29.780Z,24.68
2022-08-02T20:33:56.906Z,24.67
2022-08-02T20:36:23.495Z,24.77
2022-08-02T20:38:50.160Z,24.78
2022-08-02T20:41:20.226Z,24.83
2022-08-02T20:43:48.337Z,24.90
2022-08-02T20:46:15.107Z,24.81
2022-08-02T20:48:41.491Z,24.81
2022-08-02T20:51:12.182Z,24.80
2022-08-02T20:53:55.088Z,24.79
2022-08-02T20:56:25.148Z,24.78
2022-08-02T20:58:52.634Z,24.75
2022-08-02T21:01:21.470Z,24.74
2022-08-02T21:03:58.801Z,24.73
2022-08-02T21:06:26.290Z,24.71
2022-08-02T21:08:54.645Z,24.72
2022-08-02T21:11:21.046Z,24.74
2022-08-02T21:14:08.914Z,24.71
2022-08-02T21:16:35.891Z,24.69
2022-08-02T21:19:02.459Z,24.67
2022-08-02T21:21:29.623Z,24.64
2022-08-02T21:23:56.387Z,24.63
2022-08-02T21:26:27.960Z,24.58
2022-08-02T21:28:55.211Z,24.56
2022-08-02T21:31:21.591Z,24.55
2022-08-02T21:33:58.869Z,24.53
2022-08-02T21:36:30.469Z,24.51
2022-08-02T21:39:04.721Z,24.51
2022-08-02T21:41:39.176Z,24.50
2022-08-02T21:44:12.481Z,24.50
2022-08-02T21:46:38.838Z,24.48
2022-08-02T21:49:05.269Z,24.46
2022-08-02T21:51:34.361Z,24.49
2022-08-02T21:54:18.375Z,24.49
2022-08-02T21:56:46.363Z,24.44
2022-08-02T21:59:16.173Z,24.47
2022-08-02T22:01:52.640Z,24.44
2022-08-02T22:04:19.605Z,24.46
2022-08-02T22:06:46.834Z,24.59
2022-08-02T22:09:17.445Z,24.60
2022-08-02T22:11:44.349Z,24.51
2022-08-02T22:14:12.618Z,24.51
2022-08-02T22:16:39.025Z,24.57
2022-08-02T22:19:06.651Z,24.64
2022-08-02T22:21:37.710Z,24.66
2022-08-02T22:24:29.585Z,24.66
2022-08-02T22:26:56.689Z,24.67
2022-08-02T22:29:23.057Z,24.62
2022-08-02T22:31:49.421Z,24.56
2022-08-02T22:34:36.815Z,24.57
2022-08-02T22:37:07.424Z,24.48
2022-08-02T22:39:34.117Z,24.55
2022-08-02T22:42:05.381Z,24.45
2022-08-02T22:44:33.878Z,24.48
2022-08-02T22:47:07.531Z,24.43
2022-08-02T22:49:51.691Z,24.41
2022-08-02T22:52:22.529Z,24.52
2022-08-02T22:54:49.055Z,24.43
2022-08-02T22:57:17.250Z,24.33
2022-08-02T22:58:50.685Z,25.28
2022-08-02T22:58:51.126Z,25.35
2022-08-02T22:59:57.311Z,24.26
2022-08-02T23:02:25.105Z,24.24
2022-08-02T23:04:51.616Z,24.25
2022-08-02T23:07:17.992Z,24.22
2022-08-02T23:09:44.354Z,24.24
2022-08-02T23:12:10.734Z,24.32
2022-08-02T23:14:37.093Z,24.25
2022-08-02T23:17:22.095Z,24.19
2022-08-02T23:19:51.163Z,24.23
2022-08-02T23:22:18.217Z,24.26
2022-08-02T23:24:45.511Z,24.21
2022-08-02T23:27:11.898Z,24.16
2022-08-02T23:29:38.258Z,24.17
2022-08-02T23:32:04.605Z,24.16
2022-08-02T23:34:32.822Z,24.16
2022-08-02T23:36:59.197Z,24.15
2022-08-02T23:39:25.562Z,24.14
2022-08-02T23:41:54.796Z,24.13
2022-08-02T23:44:21.813Z,24.12
2022-08-02T23:46:48.189Z,24.12
2022-08-02T23:49:14.657Z,24.11
2022-08-02T23:51:41.101Z,24.10
2022-08-02T23:54:07.471Z,24.09
2022-08-02T23:56:33.829Z,24.08
2022-08-02T23:59:00.194Z,24.07
